Terminal Aerodrome Forecast
Issued by NWS Topeka, KS

Home | Current Version | Previous Version | Text Only | Print | Product List | Glossary On
Versions: 1 2 3 4 5 6 7 8 9 10 11 12 13 14 15
928
FTUS43 KTOP 240854 AAB
TAFTOP
TAF AMD
KTOP 240854Z 2409/2506 20008KT P6SM SCT025 SCT200 WS020/21045KT
      TEMPO 2409/2411 01015G25KT
     FM241300 21012KT P6SM FEW040 BKN150
     FM242100 22008KT P6SM VCTS BKN040CB=

USA.gov is the U.S. government's official web portal to all federal, state and local government web resources and services.